createdAt,value
2017-04-13T00:00:21.249Z,8.50
2017-04-13T00:01:20.507Z,8.50
2017-04-13T00:02:20.129Z,8.50
2017-04-13T00:03:19.397Z,8.50
2017-04-13T00:04:18.647Z,8.50
2017-04-13T00:05:17.944Z,8.50
2017-04-13T00:06:17.204Z,8.50
2017-04-13T00:07:15.669Z,8.50
2017-04-13T00:08:15.217Z,8.50
2017-04-13T00:09:13.715Z,8.50
2017-04-13T00:10:12.933Z,8.50
2017-04-13T00:11:12.175Z,8.50
2017-04-13T00:12:11.432Z,8.50
2017-04-13T00:13:10.661Z,8.50
2017-04-13T00:14:10.329Z,8.50
2017-04-13T00:15:10.308Z,8.40
2017-04-13T00:16:09.582Z,8.50
2017-04-13T00:17:08.804Z,8.50
2017-04-13T00:18:08.029Z,8.50
2017-04-13T00:19:07.274Z,8.50
2017-04-13T00:20:06.797Z,8.50
2017-04-13T00:21:06.100Z,8.50
2017-04-13T00:22:05.359Z,8.60
2017-04-13T00:23:04.599Z,8.60
2017-04-13T00:24:04.589Z,8.60
2017-04-13T00:25:03.908Z,8.70
2017-04-13T00:26:03.452Z,8.70
2017-04-13T00:27:02.697Z,8.60
2017-04-13T00:28:01.934Z,8.60
2017-04-13T00:29:01.221Z,8.60
2017-04-13T00:30:00.448Z,8.60
2017-04-13T00:30:59.688Z,8.50
2017-04-13T00:32:00.076Z,8.50
2017-04-13T00:32:59.329Z,8.50
2017-04-13T00:33:58.553Z,8.50
2017-04-13T00:34:57.776Z,8.50
2017-04-13T00:35:56.993Z,8.50
2017-04-13T00:36:56.269Z,8.50
2017-04-13T00:37:55.864Z,8.50
2017-04-13T00:38:55.125Z,8.50
2017-04-13T00:39:54.393Z,8.50
2017-04-13T00:40:53.685Z,8.50
2017-04-13T00:41:52.985Z,8.50
2017-04-13T00:42:52.241Z,8.50
2017-04-13T00:43:51.766Z,8.50
2017-04-13T00:44:51.008Z,8.50
2017-04-13T00:45:50.980Z,8.50
2017-04-13T00:46:50.201Z,8.50
2017-04-13T00:47:49.437Z,8.40
2017-04-13T00:48:48.655Z,8.50
2017-04-13T00:49:48.217Z,8.50
2017-04-13T00:50:47.453Z,8.50
2017-04-13T00:51:46.680Z,8.50
2017-04-13T00:52:45.935Z,8.40
2017-04-13T00:53:45.157Z,8.50
2017-04-13T00:54:44.419Z,8.50
2017-04-13T00:55:43.933Z,8.50
2017-04-13T00:56:43.196Z,8.50
2017-04-13T00:57:42.427Z,8.50
2017-04-13T00:58:41.671Z,8.50
2017-04-13T00:59:40.905Z,8.40
2017-04-13T01:00:40.176Z,8.50
2017-04-13T01:01:39.819Z,8.50
2017-04-13T01:02:39.067Z,8.50
2017-04-13T01:03:38.315Z,8.50
2017-04-13T01:04:37.545Z,8.50
2017-04-13T01:05:36.896Z,8.50
2017-04-13T01:06:35.365Z,8.40
2017-04-13T01:07:35.016Z,8.50
2017-04-13T01:08:34.253Z,8.50
2017-04-13T01:09:33.496Z,8.50
2017-04-13T01:10:32.768Z,8.50
2017-04-13T01:11:32.016Z,8.40
2017-04-13T01:12:31.260Z,8.40
2017-04-13T01:13:30.818Z,8.40
2017-04-13T01:14:30.069Z,8.40
2017-04-13T01:15:29.349Z,8.40
2017-04-13T01:16:28.604Z,8.40
2017-04-13T01:17:27.826Z,8.40
2017-04-13T01:18:27.152Z,8.40
2017-04-13T01:19:26.840Z,8.40
2017-04-13T01:20:26.064Z,8.40
2017-04-13T01:21:24.652Z,8.40
2017-04-13T01:22:23.900Z,8.40
2017-04-13T01:23:22.361Z,8.40
2017-04-13T01:24:21.627Z,8.40
2017-04-13T01:25:21.204Z,8.40
2017-04-13T01:26:20.481Z,8.40
2017-04-13T01:27:19.740Z,8.40
2017-04-13T01:28:18.997Z,8.40
2017-04-13T01:29:18.232Z,8.40
2017-04-13T01:30:17.521Z,8.40
2017-04-13T01:31:17.049Z,8.40
2017-04-13T01:32:16.285Z,8.40
2017-04-13T01:33:15.525Z,8.30
2017-04-13T01:34:14.769Z,8.40
2017-04-13T01:35:14.013Z,8.30
2017-04-13T01:36:13.254Z,8.30
2017-04-13T01:37:12.827Z,8.30
2017-04-13T01:38:12.084Z,8.30
2017-04-13T01:39:11.340Z,8.30
2017-04-13T01:40:10.623Z,8.30
2017-04-13T01:41:09.921Z,8.30
2017-04-13T01:42:09.140Z,8.30
2017-04-13T01:43:08.761Z,8.30
2017-04-13T01:44:08.013Z,8.30
2017-04-13T01:45:07.232Z,8.30
2017-04-13T01:46:06.456Z,8.30
2017-04-13T01:47:05.706Z,8.30
2017-04-13T01:48:04.961Z,8.30
2017-04-13T01:49:04.567Z,8.30
2017-04-13T01:50:03.850Z,8.30
2017-04-13T01:51:03.075Z,8.30
2017-04-13T01:52:02.308Z,8.30
2017-04-13T01:53:01.572Z,8.30
2017-04-13T01:54:00.049Z,8.30
2017-04-13T01:54:59.550Z,8.30
2017-04-13T01:55:58.780Z,8.40
2017-04-13T01:56:58.049Z,8.40
2017-04-13T01:57:57.302Z,8.40
2017-04-13T01:58:56.528Z,8.40
2017-04-13T01:59:55.760Z,8.30
2017-04-13T02:00:55.316Z,8.40
2017-04-13T02:01:54.576Z,8.40
2017-04-13T02:02:53.808Z,8.30
2017-04-13T02:03:53.883Z,8.30
2017-04-13T02:04:53.115Z,8.30
2017-04-13T02:05:52.356Z,8.30
2017-04-13T02:06:51.943Z,8.30
2017-04-13T02:07:51.196Z,8.30
2017-04-13T02:08:50.554Z,8.30
2017-04-13T02:09:49.859Z,8.30
2017-04-13T02:10:49.108Z,8.30
2017-04-13T02:11:48.350Z,8.30
2017-04-13T02:12:48.072Z,8.30
2017-04-13T02:13:48.236Z,8.30
2017-04-13T02:14:47.477Z,8.30
2017-04-13T02:15:46.715Z,8.30
2017-04-13T02:16:45.972Z,8.30
2017-04-13T02:17:45.218Z,8.30
2017-04-13T02:18:44.989Z,8.30
2017-04-13T02:19:44.232Z,8.30
2017-04-13T02:20:43.527Z,8.30
2017-04-13T02:21:42.768Z,8.30
2017-04-13T02:22:42.029Z,8.30
2017-04-13T02:23:41.265Z,8.30
2017-04-13T02:24:40.813Z,8.30
2017-04-13T02:25:40.062Z,8.30
2017-04-13T02:26:39.331Z,8.30
2017-04-13T02:27:38.569Z,8.30
2017-04-13T02:28:37.792Z,8.30
2017-04-13T02:29:37.041Z,8.30
2017-04-13T02:30:36.574Z,8.30
2017-04-13T02:31:35.813Z,8.30
2017-04-13T02:32:35.043Z,8.30
2017-04-13T02:33:34.296Z,8.30
2017-04-13T02:34:33.556Z,8.30
2017-04-13T02:35:32.832Z,8.40
2017-04-13T02:36:32.503Z,8.40
2017-04-13T02:37:31.780Z,8.40
2017-04-13T02:38:31.396Z,8.40
2017-04-13T02:39:30.729Z,8.40
2017-04-13T02:40:30.023Z,8.40
2017-04-13T02:41:29.277Z,8.40
2017-04-13T02:42:28.925Z,8.30
2017-04-13T02:43:28.184Z,8.30
2017-04-13T02:44:27.408Z,8.30
2017-04-13T02:45:26.684Z,8.30
2017-04-13T02:46:25.922Z,8.30
2017-04-13T02:47:25.139Z,8.20
2017-04-13T02:48:24.736Z,8.30
2017-04-13T02:49:23.972Z,8.30
2017-04-13T02:50:23.256Z,8.30
2017-04-13T02:51:22.489Z,8.30
2017-04-13T02:52:21.735Z,8.30
2017-04-13T02:53:20.973Z,8.20
2017-04-13T02:54:21.360Z,8.20
2017-04-13T02:55:20.603Z,8.20
2017-04-13T02:56:19.862Z,8.20
2017-04-13T02:57:19.100Z,8.20
2017-04-13T02:58:18.337Z,8.30
2017-04-13T02:59:17.581Z,8.30
2017-04-13T03:00:16.360Z,8.30
2017-04-13T03:01:15.597Z,8.30
2017-04-13T03:02:14.864Z,8.30
2017-04-13T03:03:14.114Z,8.30
2017-04-13T03:04:13.368Z,8.40
2017-04-13T03:05:12.627Z,8.30
2017-04-13T03:06:12.258Z,8.30
2017-04-13T03:07:11.493Z,8.30
2017-04-13T03:08:10.749Z,8.30
2017-04-13T03:09:09.195Z,8.30
2017-04-13T03:10:07.686Z,8.30
2017-04-13T03:11:06.924Z,8.20
2017-04-13T03:12:07.233Z,8.10
2017-04-13T03:13:06.725Z,8.10
2017-04-13T03:14:05.953Z,8.10
2017-04-13T03:15:05.197Z,8.00
2017-04-13T03:16:04.486Z,8.00
2017-04-13T03:17:03.755Z,7.90
2017-04-13T03:18:03.347Z,7.80
2017-04-13T03:19:02.584Z,7.80
2017-04-13T03:20:01.814Z,7.80
2017-04-13T03:21:01.049Z,7.70
2017-04-13T03:22:00.284Z,7.70
2017-04-13T03:22:59.525Z,7.70
2017-04-13T03:23:59.051Z,7.70
2017-04-13T03:24:58.305Z,7.70
2017-04-13T03:25:57.601Z,7.70
2017-04-13T03:26:56.833Z,7.70
2017-04-13T03:27:56.065Z,7.70
2017-04-13T03:28:54.538Z,7.70
2017-04-13T03:29:54.076Z,7.60
2017-04-13T03:30:53.313Z,7.60
2017-04-13T03:31:52.559Z,7.50
2017-04-13T03:32:51.792Z,7.50
2017-04-13T03:33:50.259Z,7.50
2017-04-13T03:34:49.504Z,7.50
2017-04-13T03:35:49.041Z,7.50
2017-04-13T03:36:48.288Z,7.40
2017-04-13T03:37:47.555Z,7.50
2017-04-13T03:38:46.806Z,7.40
2017-04-13T03:39:46.094Z,7.50
2017-04-13T03:40:45.344Z,7.40
2017-04-13T03:41:44.925Z,7.50
2017-04-13T03:42:44.180Z,7.50
2017-04-13T03:43:43.421Z,7.40
2017-04-13T03:44:42.657Z,7.40
2017-04-13T03:45:41.917Z,7.40
2017-04-13T03:46:41.160Z,7.40
2017-04-13T03:47:40.856Z,7.40
2017-04-13T03:48:40.184Z,7.40
2017-04-13T03:49:39.425Z,7.40
2017-04-13T03:50:38.685Z,7.40
2017-04-13T03:51:38.665Z,7.40
2017-04-13T03:52:37.936Z,7.40
2017-04-13T03:53:37.833Z,7.40
2017-04-13T03:54:37.088Z,7.40
2017-04-13T03:55:36.341Z,7.40
2017-04-13T03:56:35.563Z,7.40
2017-04-13T03:57:34.825Z,7.40
2017-04-13T03:58:34.087Z,7.30
2017-04-13T03:59:33.173Z,7.30
2017-04-13T04:00:32.432Z,7.30
2017-04-13T04:01:31.705Z,7.30
2017-04-13T04:02:31.477Z,7.40
2017-04-13T04:03:30.728Z,7.30
2017-04-13T04:04:29.996Z,7.30
2017-04-13T04:05:29.596Z,7.30
2017-04-13T04:06:28.948Z,7.20
2017-04-13T04:07:28.198Z,7.20
2017-04-13T04:08:27.477Z,7.20
2017-04-13T04:09:26.715Z,7.20
2017-04-13T04:10:25.997Z,7.20
2017-04-13T04:11:25.596Z,7.20
2017-04-13T04:12:24.833Z,7.20
2017-04-13T04:13:24.069Z,7.30
2017-04-13T04:14:23.328Z,7.20
2017-04-13T04:15:22.575Z,7.20
2017-04-13T04:16:21.808Z,7.20
2017-04-13T04:17:21.521Z,7.20
2017-04-13T04:18:20.772Z,7.20
2017-04-13T04:19:20.000Z,7.30
2017-04-13T04:20:19.251Z,7.30
2017-04-13T04:21:19.228Z,7.20
2017-04-13T04:22:18.464Z,7.30
2017-04-13T04:23:18.342Z,7.20
2017-04-13T04:24:17.617Z,7.30
2017-04-13T04:25:16.852Z,7.20
2017-04-13T04:26:16.092Z,7.20
2017-04-13T04:27:15.382Z,7.30
2017-04-13T04:28:14.594Z,7.20
2017-04-13T04:29:15.479Z,7.30
2017-04-13T04:30:14.919Z,7.30
2017-04-13T04:31:14.342Z,7.30
2017-04-13T04:32:13.652Z,7.30
2017-04-13T04:33:16.628Z,7.20
2017-04-13T04:34:16.305Z,7.20
2017-04-13T04:35:15.521Z,7.20
2017-04-13T04:36:15.700Z,7.20
2017-04-13T04:37:15.017Z,7.10
2017-04-13T04:38:17.183Z,7.10
2017-04-13T04:39:17.434Z,7.10
2017-04-13T04:40:16.768Z,7.20
2017-04-13T04:41:16.034Z,7.20
2017-04-13T04:42:15.288Z,7.10
2017-04-13T04:43:14.508Z,7.20
2017-04-13T04:44:13.746Z,7.20
2017-04-13T04:45:13.439Z,7.10
2017-04-13T04:46:15.636Z,7.10
2017-04-13T04:47:14.883Z,7.10
2017-04-13T04:48:14.105Z,7.10
2017-04-13T04:49:17.172Z,7.10
2017-04-13T04:50:21.216Z,7.10
2017-04-13T04:51:20.465Z,7.10
2017-04-13T04:52:24.378Z,7.10
2017-04-13T04:53:23.617Z,7.10
2017-04-13T04:54:22.844Z,7.10
2017-04-13T04:55:22.457Z,7.10
2017-04-13T04:56:24.097Z,7.10
2017-04-13T04:57:23.393Z,7.10
2017-04-13T04:58:24.570Z,7.20
2017-04-13T04:59:23.963Z,7.20
2017-04-13T05:00:27.460Z,7.20
2017-04-13T05:01:26.842Z,7.20
2017-04-13T05:02:26.107Z,7.20
2017-04-13T05:03:24.592Z,7.10
2017-04-13T05:04:23.833Z,7.10
2017-04-13T05:05:23.064Z,7.20
2017-04-13T05:06:22.600Z,7.10
2017-04-13T05:07:21.816Z,7.10
2017-04-13T05:08:21.071Z,7.00
2017-04-13T05:09:20.353Z,7.10
2017-04-13T05:10:19.588Z,7.10
2017-04-13T05:11:18.829Z,7.10
2017-04-13T05:12:18.344Z,7.10
2017-04-13T05:13:17.589Z,7.10
2017-04-13T05:14:16.885Z,7.10
2017-04-13T05:15:16.177Z,7.10
2017-04-13T05:16:15.426Z,7.10
2017-04-13T05:17:14.658Z,7.10
2017-04-13T05:18:14.293Z,7.10
2017-04-13T05:19:13.561Z,7.10
2017-04-13T05:20:12.808Z,7.20
2017-04-13T05:21:12.132Z,7.20
2017-04-13T05:22:11.356Z,7.20
2017-04-13T05:23:10.617Z,7.20
2017-04-13T05:24:09.469Z,7.10
2017-04-13T05:25:08.743Z,7.10
2017-04-13T05:26:08.030Z,7.20
2017-04-13T05:27:07.287Z,7.20
2017-04-13T05:28:06.541Z,7.20
2017-04-13T05:29:05.787Z,7.20
2017-04-13T05:30:05.388Z,7.20
2017-04-13T05:31:04.629Z,7.10
2017-04-13T05:32:03.848Z,7.10
2017-04-13T05:33:03.114Z,7.10
2017-04-13T05:34:02.371Z,7.10
2017-04-13T05:35:01.613Z,7.10
2017-04-13T05:36:01.181Z,7.10
2017-04-13T05:37:00.414Z,7.10
2017-04-13T05:37:59.631Z,7.10
2017-04-13T05:38:58.868Z,7.10
2017-04-13T05:39:58.101Z,7.10
2017-04-13T05:40:57.389Z,7.10
2017-04-13T05:41:56.979Z,7.10
2017-04-13T05:42:56.238Z,7.10
2017-04-13T05:43:54.760Z,7.00
2017-04-13T05:44:53.328Z,7.10
2017-04-13T05:45:53.300Z,7.00
2017-04-13T05:46:52.758Z,7.00
2017-04-13T05:47:52.422Z,6.90
2017-04-13T05:48:51.705Z,6.90
2017-04-13T05:49:50.992Z,6.80
2017-04-13T05:50:50.220Z,6.80
2017-04-13T05:51:49.477Z,6.80
2017-04-13T05:52:48.719Z,6.70
2017-04-13T05:53:48.297Z,6.60
2017-04-13T05:54:47.516Z,6.60
2017-04-13T05:55:46.735Z,6.60
2017-04-13T05:56:45.964Z,6.60
2017-04-13T05:57:45.188Z,6.60
2017-04-13T05:58:44.423Z,6.50
2017-04-13T05:59:43.992Z,6.50
2017-04-13T06:00:43.245Z,6.50
2017-04-13T06:01:42.484Z,6.60
2017-04-13T06:02:41.849Z,6.50
2017-04-13T06:03:41.096Z,6.50
2017-04-13T06:04:40.332Z,6.50
2017-04-13T06:05:39.896Z,6.50
2017-04-13T06:06:39.119Z,6.40
2017-04-13T06:07:39.081Z,6.40
2017-04-13T06:08:38.311Z,6.50
2017-04-13T06:09:37.545Z,6.40
2017-04-13T06:10:36.797Z,6.50
2017-04-13T06:11:36.316Z,6.50
2017-04-13T06:12:35.696Z,6.50
2017-04-13T06:13:35.111Z,6.50
2017-04-13T06:14:39.488Z,6.50
2017-04-13T06:15:38.987Z,6.50
2017-04-13T06:16:38.577Z,6.50
2017-04-13T06:17:37.809Z,6.60
2017-04-13T06:18:37.057Z,6.60
2017-04-13T06:19:36.282Z,6.70
2017-04-13T06:20:35.561Z,6.70
2017-04-13T06:21:34.793Z,6.60
2017-04-13T06:22:34.381Z,6.70
2017-04-13T06:23:33.593Z,6.70
2017-04-13T06:24:32.877Z,6.70
2017-04-13T06:25:32.831Z,6.70
2017-04-13T06:26:32.062Z,6.80
2017-04-13T06:27:31.280Z,6.80
2017-04-13T06:28:30.902Z,6.80
2017-04-13T06:29:30.117Z,6.80
2017-04-13T06:30:29.336Z,6.80
2017-04-13T06:31:28.569Z,6.90
2017-04-13T06:32:27.797Z,6.80
2017-04-13T06:33:27.025Z,6.80
2017-04-13T06:34:26.604Z,6.80
2017-04-13T06:35:25.857Z,6.80
2017-04-13T06:36:25.104Z,6.80
2017-04-13T06:37:24.325Z,6.80
2017-04-13T06:38:23.556Z,6.80
2017-04-13T06:39:22.796Z,6.80
2017-04-13T06:40:22.317Z,6.90
2017-04-13T06:41:21.564Z,6.90
2017-04-13T06:42:20.783Z,6.90
2017-04-13T06:43:20.028Z,6.90
2017-04-13T06:44:19.272Z,7.00
2017-04-13T06:45:18.500Z,7.00
2017-04-13T06:46:18.018Z,7.00
2017-04-13T06:47:17.276Z,7.10
2017-04-13T06:48:16.497Z,7.10
2017-04-13T06:49:15.729Z,7.10
2017-04-13T06:50:14.984Z,7.10
2017-04-13T06:51:14.929Z,7.10
2017-04-13T06:52:14.433Z,7.20
2017-04-13T06:53:13.652Z,7.50
2017-04-13T06:54:12.957Z,7.80
2017-04-13T06:55:12.180Z,8.10
2017-04-13T06:56:11.413Z,8.20
2017-04-13T06:57:10.641Z,8.30
2017-04-13T06:58:10.132Z,8.20
2017-04-13T06:59:09.345Z,8.10
2017-04-13T07:00:08.629Z,8.10
2017-04-13T07:01:07.916Z,8.10
2017-04-13T07:02:07.884Z,8.10
2017-04-13T07:03:07.112Z,8.10
2017-04-13T07:04:06.756Z,8.10
2017-04-13T07:05:06.097Z,8.10
2017-04-13T07:06:05.324Z,8.20
2017-04-13T07:07:04.552Z,8.20
2017-04-13T07:08:03.780Z,8.20
2017-04-13T07:09:03.012Z,8.30
2017-04-13T07:10:02.564Z,8.40
2017-04-13T07:11:01.789Z,8.50
2017-04-13T07:12:01.040Z,8.50
2017-04-13T07:13:00.264Z,8.60
2017-04-13T07:13:59.480Z,8.60
2017-04-13T07:14:58.690Z,8.50
2017-04-13T07:15:58.373Z,8.60
2017-04-13T07:16:57.601Z,8.60
2017-04-13T07:17:56.821Z,8.60
2017-04-13T07:18:56.049Z,8.60
2017-04-13T07:19:56.008Z,8.50
2017-04-13T07:20:55.224Z,8.50
2017-04-13T07:21:54.724Z,8.50
2017-04-13T07:22:53.964Z,8.50
2017-04-13T07:23:53.196Z,8.50
2017-04-13T07:24:52.416Z,8.60
2017-04-13T07:25:51.661Z,8.50
2017-04-13T07:26:50.948Z,8.50
2017-04-13T07:27:50.600Z,8.50
2017-04-13T07:28:49.864Z,8.60
2017-04-13T07:29:49.076Z,8.50
2017-04-13T07:30:48.332Z,8.40
2017-04-13T07:31:47.548Z,8.50
2017-04-13T07:32:46.765Z,8.50
2017-04-13T07:33:46.295Z,8.70
2017-04-13T07:34:45.529Z,9.10
2017-04-13T07:35:44.740Z,9.50
2017-04-13T07:36:43.973Z,10.10
2017-04-13T07:37:43.183Z,10.70
2017-04-13T07:38:42.443Z,11.40
2017-04-13T07:39:42.121Z,12.00
2017-04-13T07:40:41.366Z,12.10
2017-04-13T07:41:40.624Z,12.10
2017-04-13T07:42:39.860Z,12.20
2017-04-13T07:43:39.124Z,12.20
2017-04-13T07:44:38.348Z,12.50
2017-04-13T07:45:37.912Z,12.50
2017-04-13T07:46:37.145Z,12.20
2017-04-13T07:47:36.595Z,12.20
2017-04-13T07:48:35.852Z,12.00
2017-04-13T07:49:35.101Z,12.30
2017-04-13T07:50:34.360Z,12.70
2017-04-13T07:51:34.643Z,13.10
2017-04-13T07:52:33.899Z,13.10
2017-04-13T07:53:33.182Z,13.20
2017-04-13T07:54:32.439Z,12.80
2017-04-13T07:55:31.701Z,12.60
2017-04-13T07:56:30.929Z,12.40
2017-04-13T07:57:30.528Z,12.20
2017-04-13T07:58:29.749Z,11.80
2017-04-13T07:59:28.968Z,11.70
2017-04-13T08:00:28.209Z,11.50
2017-04-13T08:01:27.452Z,11.10
2017-04-13T08:02:26.676Z,10.70
2017-04-13T08:03:26.188Z,10.50
2017-04-13T08:04:25.428Z,10.40
2017-04-13T08:05:24.863Z,10.40
2017-04-13T08:06:24.132Z,10.50
2017-04-13T08:07:23.372Z,10.60
2017-04-13T08:08:22.623Z,10.70
2017-04-13T08:09:22.199Z,10.80
2017-04-13T08:10:22.205Z,10.70
2017-04-13T08:11:21.439Z,10.80
2017-04-13T08:12:20.676Z,10.90
2017-04-13T08:13:19.902Z,10.60
2017-04-13T08:14:19.863Z,10.50
2017-04-13T08:15:19.397Z,10.50
2017-04-13T08:16:18.662Z,10.50
2017-04-13T08:17:17.944Z,10.60
2017-04-13T08:18:17.169Z,11.20
2017-04-13T08:19:16.401Z,11.50
2017-04-13T08:20:15.637Z,11.80
2017-04-13T08:21:15.200Z,12.10
2017-04-13T08:22:14.501Z,12.40
2017-04-13T08:23:13.784Z,12.40
2017-04-13T08:24:13.053Z,12.70
2017-04-13T08:25:12.281Z,12.80
2017-04-13T08:26:11.512Z,13.10
2017-04-13T08:27:11.844Z,12.90
2017-04-13T08:28:11.079Z,13.00
2017-04-13T08:29:10.449Z,13.10
2017-04-13T08:30:09.682Z,12.80
2017-04-13T08:31:08.934Z,12.50
2017-04-13T08:32:08.177Z,12.60
2017-04-13T08:33:08.553Z,13.10
2017-04-13T08:34:07.785Z,13.50
2017-04-13T08:35:07.012Z,13.50
2017-04-13T08:36:06.268Z,13.70
2017-04-13T08:37:05.522Z,14.30
2017-04-13T08:38:04.748Z,14.60
2017-04-13T08:39:04.465Z,14.80
2017-04-13T08:40:03.701Z,14.80
2017-04-13T08:41:02.925Z,14.60
2017-04-13T08:42:02.558Z,14.50
2017-04-13T08:43:01.793Z,14.50
2017-04-13T08:44:01.048Z,14.30
2017-04-13T08:45:00.566Z,14.10
2017-04-13T08:45:59.814Z,14.00
2017-04-13T08:46:59.048Z,14.00
2017-04-13T08:47:58.325Z,14.00
2017-04-13T08:48:57.555Z,13.90
2017-04-13T08:49:56.781Z,13.90
2017-04-13T08:50:56.376Z,13.80
2017-04-13T08:51:54.837Z,13.80
2017-04-13T08:52:54.076Z,13.50
2017-04-13T08:53:53.361Z,13.50
2017-04-13T08:54:52.609Z,13.70
2017-04-13T08:55:51.897Z,13.70
2017-04-13T08:56:51.470Z,13.60
2017-04-13T08:57:50.729Z,13.30
2017-04-13T08:58:49.947Z,13.30
2017-04-13T08:59:49.248Z,13.20
2017-04-13T09:00:48.555Z,13.10
2017-04-13T09:01:47.872Z,12.80
2017-04-13T09:02:47.600Z,12.70
2017-04-13T09:03:47.192Z,12.70
2017-04-13T09:04:46.525Z,12.60
2017-04-13T09:05:45.893Z,12.80
2017-04-13T09:06:45.129Z,13.20
2017-04-13T09:07:44.513Z,13.00
2017-04-13T09:08:44.108Z,12.90
2017-04-13T09:09:43.345Z,12.80
2017-04-13T09:10:42.689Z,13.00
2017-04-13T09:11:42.028Z,13.00
2017-04-13T09:12:41.419Z,13.10
2017-04-13T09:13:40.765Z,13.50
2017-04-13T09:14:40.364Z,13.70
2017-04-13T09:15:39.659Z,14.20
2017-04-13T09:16:38.966Z,14.50
2017-04-13T09:17:38.348Z,14.70
2017-04-13T09:18:37.640Z,14.90
2017-04-13T09:19:36.208Z,14.90
2017-04-13T09:20:35.937Z,15.30
2017-04-13T09:21:35.290Z,15.70
2017-04-13T09:22:34.676Z,15.50
2017-04-13T09:23:33.957Z,15.80
2017-04-13T09:24:33.256Z,15.60
2017-04-13T09:25:32.492Z,15.30
2017-04-13T09:26:32.045Z,14.80
2017-04-13T09:27:31.288Z,14.70
2017-04-13T09:28:30.613Z,14.50
2017-04-13T09:29:29.899Z,13.80
2017-04-13T09:30:29.289Z,13.40
2017-04-13T09:31:28.605Z,13.10
2017-04-13T09:32:28.181Z,12.70
2017-04-13T09:33:27.602Z,12.40
2017-04-13T09:34:27.280Z,12.20
2017-04-13T09:35:26.690Z,12.10
2017-04-13T09:36:26.042Z,12.10
2017-04-13T09:37:25.393Z,11.90
2017-04-13T09:38:25.034Z,11.80
2017-04-13T09:39:24.420Z,11.50
2017-04-13T09:40:23.753Z,11.40
2017-04-13T09:41:23.050Z,11.20
2017-04-13T09:42:22.320Z,11.20
2017-04-13T09:43:21.604Z,11.10
2017-04-13T09:44:20.477Z,11.00
2017-04-13T09:45:19.853Z,10.80
2017-04-13T09:46:19.070Z,10.70
2017-04-13T09:47:18.289Z,10.60
2017-04-13T09:48:17.507Z,10.50
2017-04-13T09:49:16.734Z,10.40
2017-04-13T09:50:16.273Z,10.30
2017-04-13T09:51:15.509Z,10.20
2017-04-13T09:52:14.000Z,10.20
2017-04-13T09:53:13.241Z,10.30
2017-04-13T09:54:12.479Z,10.40
2017-04-13T09:55:12.450Z,10.40
2017-04-13T09:56:12.347Z,10.50
2017-04-13T09:57:11.573Z,10.70
2017-04-13T09:58:10.845Z,11.00
2017-04-13T09:59:10.071Z,11.10
2017-04-13T10:00:09.321Z,11.20
2017-04-13T10:01:08.553Z,11.50
2017-04-13T10:02:08.120Z,11.70
2017-04-13T10:03:07.169Z,11.60
2017-04-13T10:04:07.132Z,12.00
2017-04-13T10:05:06.264Z,11.90
2017-04-13T10:06:05.934Z,12.10
2017-04-13T10:07:05.232Z,12.30
2017-04-13T10:08:04.788Z,12.40
2017-04-13T10:09:04.413Z,12.40
2017-04-13T10:10:04.381Z,12.50
2017-04-13T10:11:04.209Z,12.60
2017-04-13T10:12:04.279Z,12.60
2017-04-13T10:13:04.403Z,12.70
2017-04-13T10:14:04.267Z,12.50
2017-04-13T10:15:03.564Z,12.60
2017-04-13T10:16:03.052Z,12.70
2017-04-13T10:17:02.926Z,12.70
2017-04-13T10:18:02.156Z,12.80
2017-04-13T10:19:01.756Z,13.00
2017-04-13T10:20:00.981Z,13.10
2017-04-13T10:21:00.209Z,13.20
2017-04-13T10:21:59.437Z,13.40
2017-04-13T10:22:59.407Z,13.30
2017-04-13T10:23:58.629Z,13.40
2017-04-13T10:24:58.145Z,13.40
2017-04-13T10:25:57.404Z,13.30
2017-04-13T10:26:56.644Z,13.10
2017-04-13T10:27:55.876Z,13.00
2017-04-13T10:28:55.105Z,12.90
2017-04-13T10:29:54.332Z,12.80
2017-04-13T10:30:53.843Z,12.80
2017-04-13T10:31:53.079Z,12.60
2017-04-13T10:32:52.308Z,12.50
2017-04-13T10:33:51.520Z,12.50
2017-04-13T10:34:50.744Z,12.50
2017-04-13T10:35:49.959Z,12.20
2017-04-13T10:36:49.590Z,12.30
2017-04-13T10:37:48.807Z,12.30
2017-04-13T10:38:48.095Z,12.40
2017-04-13T10:39:46.555Z,12.30
2017-04-13T10:40:45.780Z,12.40
2017-04-13T10:41:45.013Z,12.20
2017-04-13T10:42:44.689Z,12.10
2017-04-13T10:43:43.904Z,11.90
2017-04-13T10:44:43.144Z,11.90
2017-04-13T10:45:43.108Z,11.90
2017-04-13T10:46:42.669Z,11.90
2017-04-13T10:47:41.881Z,11.80
2017-04-13T10:48:41.500Z,11.80
2017-04-13T10:49:40.713Z,11.80
2017-04-13T10:50:40.672Z,11.60
2017-04-13T10:51:39.926Z,11.50
2017-04-13T10:52:39.204Z,11.60
2017-04-13T10:53:38.441Z,11.60
2017-04-13T10:54:38.037Z,11.70
2017-04-13T10:55:37.257Z,11.60
2017-04-13T10:56:36.497Z,11.70
2017-04-13T10:57:35.780Z,11.70
2017-04-13T10:58:35.053Z,11.80
2017-04-13T10:59:34.282Z,11.80
2017-04-13T11:00:33.948Z,11.80
2017-04-13T11:01:33.181Z,11.70
2017-04-13T11:02:32.635Z,11.80
2017-04-13T11:03:32.632Z,11.60
2017-04-13T11:04:32.340Z,11.60
2017-04-13T11:05:31.588Z,11.70
2017-04-13T11:06:31.172Z,11.60
2017-04-13T11:07:30.384Z,11.60
2017-04-13T11:08:29.608Z,11.50
2017-04-13T11:09:28.824Z,11.20
2017-04-13T11:10:28.081Z,11.10
2017-04-13T11:11:27.316Z,11.00
2017-04-13T11:12:26.872Z,10.90
2017-04-13T11:13:26.156Z,10.80
2017-04-13T11:14:25.378Z,10.70
2017-04-13T11:15:24.655Z,10.90
2017-04-13T11:16:23.873Z,10.90
2017-04-13T11:17:23.105Z,11.00
2017-04-13T11:18:22.672Z,11.10
2017-04-13T11:19:21.888Z,11.30
2017-04-13T11:20:21.153Z,11.50
2017-04-13T11:21:20.376Z,11.60
2017-04-13T11:22:19.711Z,11.70
2017-04-13T11:23:18.953Z,11.80
2017-04-13T11:24:18.597Z,12.00
2017-04-13T11:25:17.836Z,12.10
2017-04-13T11:26:17.108Z,12.10
2017-04-13T11:27:16.337Z,12.00
2017-04-13T11:28:15.726Z,11.80
2017-04-13T11:29:15.150Z,11.70
2017-04-13T11:30:14.769Z,11.50
2017-04-13T11:31:14.036Z,11.50
2017-04-13T11:32:13.446Z,11.60
2017-04-13T11:33:12.747Z,11.60
2017-04-13T11:34:12.033Z,11.80
2017-04-13T11:35:11.284Z,11.90
2017-04-13T11:36:10.796Z,12.20
2017-04-13T11:37:10.023Z,12.50
2017-04-13T11:38:09.343Z,12.90
2017-04-13T11:39:08.564Z,13.20
2017-04-13T11:40:08.273Z,13.40
2017-04-13T11:41:07.499Z,13.70
2017-04-13T11:42:07.028Z,13.80
2017-04-13T11:43:06.316Z,13.90
2017-04-13T11:44:06.217Z,13.80
2017-04-13T11:45:05.449Z,13.70
2017-04-13T11:46:04.722Z,13.60
2017-04-13T11:47:03.980Z,13.70
2017-04-13T11:48:03.515Z,13.80
2017-04-13T11:49:02.870Z,13.70
2017-04-13T11:50:02.170Z,13.60
2017-04-13T11:51:01.424Z,13.20
2017-04-13T11:52:01.336Z,12.80
2017-04-13T11:53:01.268Z,12.70
2017-04-13T11:54:00.888Z,12.70
2017-04-13T11:55:00.109Z,12.50
2017-04-13T11:55:59.353Z,12.50
2017-04-13T11:56:58.571Z,12.20
2017-04-13T11:57:57.793Z,12.00
2017-04-13T11:58:57.020Z,11.90
2017-04-13T11:59:56.605Z,11.90
2017-04-13T12:00:55.852Z,11.90
2017-04-13T12:01:55.084Z,11.90
2017-04-13T12:02:54.332Z,12.00
2017-04-13T12:03:53.605Z,12.10
2017-04-13T12:04:52.867Z,12.20
2017-04-13T12:05:52.508Z,12.20
2017-04-13T12:06:51.780Z,12.30
2017-04-13T12:07:51.044Z,12.50
2017-04-13T12:08:50.284Z,12.70
2017-04-13T12:09:49.529Z,13.00
2017-04-13T12:10:48.773Z,13.10
2017-04-13T12:11:48.309Z,13.30
2017-04-13T12:12:47.520Z,13.40
2017-04-13T12:13:47.509Z,13.10
2017-04-13T12:14:46.736Z,13.10
2017-04-13T12:15:45.969Z,12.80
2017-04-13T12:16:45.269Z,12.70
2017-04-13T12:17:44.941Z,12.50
2017-04-13T12:18:44.168Z,12.20
2017-04-13T12:19:43.425Z,11.90
2017-04-13T12:20:42.710Z,11.80
2017-04-13T12:21:42.677Z,11.60
2017-04-13T12:22:41.924Z,11.60
2017-04-13T12:23:41.552Z,11.50
2017-04-13T12:24:40.808Z,11.50
2017-04-13T12:25:40.081Z,11.50
2017-04-13T12:26:39.311Z,11.50
2017-04-13T12:27:38.546Z,11.60
2017-04-13T12:28:37.760Z,11.40
2017-04-13T12:29:37.277Z,11.50
2017-04-13T12:30:36.519Z,11.50
2017-04-13T12:31:35.732Z,11.50
2017-04-13T12:32:35.005Z,11.50
2017-04-13T12:33:34.224Z,11.50
2017-04-13T12:34:33.844Z,11.40
2017-04-13T12:35:33.475Z,11.40
2017-04-13T12:36:32.705Z,11.40
2017-04-13T12:37:31.996Z,11.50
2017-04-13T12:38:31.252Z,11.40
2017-04-13T12:39:30.486Z,11.40
2017-04-13T12:40:29.701Z,11.40
2017-04-13T12:41:29.280Z,11.50
2017-04-13T12:42:28.520Z,11.50
2017-04-13T12:43:27.776Z,11.50
2017-04-13T12:44:27.006Z,11.50
2017-04-13T12:45:26.236Z,11.50
2017-04-13T12:46:25.459Z,11.50
2017-04-13T12:47:25.089Z,11.50
2017-04-13T12:48:24.319Z,11.40
2017-04-13T12:49:23.557Z,11.40
2017-04-13T12:51:22.349Z,11.50
2017-04-13T12:52:21.570Z,11.50
2017-04-13T12:53:21.098Z,11.30
2017-04-13T12:54:20.311Z,11.30
2017-04-13T12:55:19.539Z,11.30
2017-04-13T12:56:19.196Z,11.40
2017-04-13T12:57:18.428Z,11.50
2017-04-13T12:58:17.647Z,11.50
2017-04-13T12:59:17.149Z,11.50
2017-04-13T13:00:16.456Z,11.60